createdAt,value
2023-04-02T00:00:48.569Z,6.91
2023-04-02T00:01:48.708Z,6.91
2023-04-02T00:02:48.735Z,6.91
2023-04-02T00:03:48.906Z,6.91
2023-04-02T00:04:48.907Z,6.89
2023-04-02T00:05:49.034Z,6.87
2023-04-02T00:06:49.187Z,6.84
2023-04-02T00:07:49.241Z,6.82
2023-04-02T00:08:49.398Z,6.82
2023-04-02T00:09:49.486Z,6.82
2023-04-02T00:10:49.594Z,6.82
2023-04-02T00:11:49.707Z,6.82
2023-04-02T00:12:49.863Z,6.81
2023-04-02T00:13:49.964Z,6.80
2023-04-02T00:14:50.264Z,6.80
2023-04-02T00:15:50.205Z,6.80
2023-04-02T00:16:50.313Z,6.80
2023-04-02T00:17:50.427Z,6.79
2023-04-02T00:18:50.515Z,6.80
2023-04-02T00:19:50.812Z,6.79
2023-04-02T00:20:50.745Z,6.79
2023-04-02T00:21:50.939Z,6.77
2023-04-02T00:22:50.974Z,6.74
2023-04-02T00:23:51.080Z,6.71
2023-04-02T00:24:51.311Z,6.70
2023-04-02T00:25:51.457Z,6.67
2023-04-02T00:26:51.429Z,6.65
2023-04-02T00:27:51.602Z,6.65
2023-04-02T00:28:51.680Z,6.66
2023-04-02T00:29:51.810Z,6.68
2023-04-02T00:30:51.914Z,6.69
2023-04-02T00:31:52.009Z,6.70
2023-04-02T00:32:52.418Z,6.71
2023-04-02T00:33:52.258Z,6.71
2023-04-02T00:34:52.413Z,6.71
2023-04-02T00:35:52.518Z,6.69
2023-04-02T00:36:52.586Z,6.66
2023-04-02T00:37:52.716Z,6.64
2023-04-02T00:38:52.774Z,6.61
2023-04-02T00:39:52.899Z,6.59
2023-04-02T00:40:52.997Z,6.59
2023-04-02T00:41:53.813Z,6.58
2023-04-02T00:42:53.262Z,6.58
2023-04-02T00:43:53.374Z,6.58
2023-04-02T00:44:53.544Z,6.58
2023-04-02T00:45:53.612Z,6.57
2023-04-02T00:46:53.701Z,6.56
2023-04-02T00:47:53.839Z,6.53
2023-04-02T00:48:54.015Z,6.50
2023-04-02T00:49:54.040Z,6.49
2023-04-02T00:50:54.362Z,6.48
2023-04-02T00:51:54.295Z,6.46
2023-04-02T00:52:54.454Z,6.44
2023-04-02T00:53:54.462Z,6.42
2023-04-02T00:54:54.580Z,6.41
2023-04-02T00:55:54.765Z,6.40
2023-04-02T00:56:54.864Z,6.40
2023-04-02T00:57:54.916Z,6.40
2023-04-02T00:58:55.050Z,6.39
2023-04-02T00:59:55.173Z,6.38
2023-04-02T01:00:55.388Z,6.37
2023-04-02T01:01:55.401Z,6.36
2023-04-02T01:02:55.543Z,6.35
2023-04-02T01:03:55.692Z,6.35
2023-04-02T01:04:55.723Z,6.34
2023-04-02T01:05:55.866Z,6.34
2023-04-02T01:06:55.920Z,6.34
2023-04-02T01:07:56.039Z,6.34
2023-04-02T01:08:56.135Z,6.34
2023-04-02T01:09:56.292Z,6.34
2023-04-02T01:10:56.526Z,6.34
2023-04-02T01:11:56.509Z,6.34
2023-04-02T01:12:56.608Z,6.33
2023-04-02T01:13:56.739Z,6.32
2023-04-02T01:14:56.846Z,6.33
2023-04-02T01:15:57.024Z,6.34
2023-04-02T01:16:57.255Z,6.35
2023-04-02T01:17:57.237Z,6.36
2023-04-02T01:18:57.344Z,6.36
2023-04-02T01:19:57.394Z,6.36
2023-04-02T01:20:57.518Z,6.35
2023-04-02T01:21:57.723Z,6.35
2023-04-02T01:22:57.744Z,6.34
2023-04-02T01:23:57.873Z,6.30
2023-04-02T01:24:57.956Z,6.24
2023-04-02T01:25:58.095Z,6.20
2023-04-02T01:26:58.211Z,6.18
2023-04-02T01:27:58.395Z,6.17
2023-04-02T01:28:58.492Z,6.18
2023-04-02T01:29:58.592Z,6.18
2023-04-02T01:30:58.710Z,6.18
2023-04-02T01:31:58.824Z,6.18
2023-04-02T01:32:59.001Z,6.17
2023-04-02T01:33:59.010Z,6.16
2023-04-02T01:34:59.159Z,6.15
2023-04-02T01:35:59.318Z,6.13
2023-04-02T01:36:59.383Z,6.12
2023-04-02T01:37:59.463Z,6.10
2023-04-02T01:38:59.575Z,6.10
2023-04-02T01:39:59.728Z,6.12
2023-04-02T01:40:59.854Z,6.14
2023-04-02T01:42:00.011Z,6.15
2023-04-02T01:43:00.047Z,6.16
2023-04-02T01:44:00.258Z,6.16
2023-04-02T01:45:00.295Z,6.17
2023-04-02T01:46:00.371Z,6.16
2023-04-02T01:47:00.466Z,6.16
2023-04-02T01:48:00.605Z,6.16
2023-04-02T01:49:00.700Z,6.15
2023-04-02T01:50:00.828Z,6.14
2023-04-02T01:51:00.982Z,6.13
2023-04-02T01:52:01.039Z,6.12
2023-04-02T01:53:01.189Z,6.11
2023-04-02T01:54:01.263Z,6.10
2023-04-02T01:55:01.385Z,6.10
2023-04-02T01:56:01.527Z,6.09
2023-04-02T01:57:01.621Z,6.09
2023-04-02T01:58:01.735Z,6.06
2023-04-02T01:59:01.834Z,6.02
2023-04-02T02:00:01.982Z,5.98
2023-04-02T02:01:02.099Z,5.96
2023-04-02T02:02:02.330Z,5.96
2023-04-02T02:03:02.325Z,5.96
2023-04-02T02:04:02.390Z,5.95
2023-04-02T02:05:02.514Z,5.94
2023-04-02T02:06:02.588Z,5.91
2023-04-02T02:07:02.728Z,5.89
2023-04-02T02:08:02.894Z,5.88
2023-04-02T02:09:02.953Z,5.87
2023-04-02T02:10:03.079Z,5.86
2023-04-02T02:11:03.217Z,5.85
2023-04-02T02:12:03.363Z,5.84
2023-04-02T02:13:03.392Z,5.83
2023-04-02T02:14:03.530Z,5.83
2023-04-02T02:15:03.644Z,5.83
2023-04-02T02:16:03.833Z,5.81
2023-04-02T02:17:03.894Z,5.79
2023-04-02T02:18:04.604Z,5.78
2023-04-02T02:19:04.135Z,5.76
2023-04-02T02:20:04.302Z,5.74
2023-04-02T02:21:04.392Z,5.73
2023-04-02T02:22:04.636Z,5.73
2023-04-02T02:23:04.594Z,5.72
2023-04-02T02:24:04.739Z,5.72
2023-04-02T02:25:04.876Z,5.71
2023-04-02T02:26:04.974Z,5.69
2023-04-02T02:27:05.102Z,5.67
2023-04-02T02:28:05.798Z,5.65
2023-04-02T02:29:05.275Z,5.65
2023-04-02T02:30:05.435Z,5.65
2023-04-02T02:31:05.519Z,5.66
2023-04-02T02:32:05.779Z,5.67
2023-04-02T02:33:05.780Z,5.67
2023-04-02T02:34:05.863Z,5.67
2023-04-02T02:35:06.095Z,5.68
2023-04-02T02:36:06.146Z,5.70
2023-04-02T02:37:06.268Z,5.70
2023-04-02T02:38:06.322Z,5.70
2023-04-02T02:39:06.482Z,5.67
2023-04-02T02:40:06.558Z,5.65
2023-04-02T02:41:06.660Z,5.64
2023-04-02T02:42:06.837Z,5.63
2023-04-02T02:43:06.909Z,5.62
2023-04-02T02:44:07.044Z,5.62
2023-04-02T02:45:07.074Z,5.63
2023-04-02T02:46:07.247Z,5.62
2023-04-02T02:47:07.324Z,5.60
2023-04-02T02:48:07.551Z,5.59
2023-04-02T02:49:07.615Z,5.58
2023-04-02T02:50:07.668Z,5.56
2023-04-02T02:51:07.758Z,5.53
2023-04-02T02:52:07.891Z,5.52
2023-04-02T02:53:08.172Z,5.50
2023-04-02T02:54:08.154Z,5.49
2023-04-02T02:55:08.402Z,5.48
2023-04-02T02:56:08.341Z,5.47
2023-04-02T02:57:08.509Z,5.46
2023-04-02T02:58:09.088Z,5.43
2023-04-02T02:59:08.736Z,5.40
2023-04-02T03:00:08.885Z,5.37
2023-04-02T03:01:08.942Z,5.35
2023-04-02T03:02:09.180Z,5.34
2023-04-02T03:03:09.209Z,5.34
2023-04-02T03:04:09.373Z,5.34
2023-04-02T03:05:09.438Z,5.35
2023-04-02T03:06:09.530Z,5.36
2023-04-02T03:07:09.584Z,5.36
2023-04-02T03:08:09.685Z,5.37
2023-04-02T03:09:09.782Z,5.37
2023-04-02T03:10:09.927Z,5.38
2023-04-02T03:11:10.005Z,5.39
2023-04-02T03:12:10.202Z,5.40
2023-04-02T03:13:10.268Z,5.41
2023-04-02T03:14:10.351Z,5.41
2023-04-02T03:15:10.987Z,5.40
2023-04-02T03:16:10.752Z,5.40
2023-04-02T03:17:10.805Z,5.40
2023-04-02T03:18:10.798Z,5.38
2023-04-02T03:19:10.959Z,5.38
2023-04-02T03:20:11.352Z,5.37
2023-04-02T03:21:11.180Z,5.33
2023-04-02T03:22:13.892Z,5.29
2023-04-02T03:23:11.418Z,5.24
2023-04-02T03:24:11.551Z,5.18
2023-04-02T03:25:11.635Z,5.13
2023-04-02T03:26:11.862Z,5.09
2023-04-02T03:27:11.884Z,5.05
2023-04-02T03:28:11.970Z,5.04
2023-04-02T03:29:12.183Z,5.04
2023-04-02T03:30:12.273Z,5.04
2023-04-02T03:31:12.431Z,5.04
2023-04-02T03:32:12.449Z,5.05
2023-04-02T03:33:12.561Z,5.06
2023-04-02T03:34:12.677Z,5.07
2023-04-02T03:35:12.780Z,5.07
2023-04-02T03:36:13.044Z,5.08
2023-04-02T03:37:13.126Z,5.09
2023-04-02T03:38:13.184Z,5.10
2023-04-02T03:39:13.307Z,5.12
2023-04-02T03:40:13.448Z,5.13
2023-04-02T03:41:13.506Z,5.14
2023-04-02T03:42:13.663Z,5.15
2023-04-02T03:43:13.789Z,5.15
2023-04-02T03:44:13.858Z,5.15
2023-04-02T03:45:13.942Z,5.15
2023-04-02T03:46:14.095Z,5.15
2023-04-02T03:47:14.183Z,5.16
2023-04-02T03:48:14.277Z,5.16
2023-04-02T03:49:14.424Z,5.16
2023-04-02T03:50:14.554Z,5.15
2023-04-02T03:51:14.646Z,5.15
2023-04-02T03:52:14.804Z,5.16
2023-04-02T03:53:14.887Z,5.18
2023-04-02T03:54:14.968Z,5.18
2023-04-02T03:55:15.068Z,5.18
2023-04-02T03:56:15.202Z,5.18
2023-04-02T03:57:15.414Z,5.17
2023-04-02T03:58:15.479Z,5.16
2023-04-02T03:59:15.510Z,5.14
2023-04-02T04:00:15.696Z,5.12
2023-04-02T04:01:15.756Z,5.11
2023-04-02T04:02:15.922Z,5.07
2023-04-02T04:03:16.012Z,5.02
2023-04-02T04:04:16.149Z,4.98
2023-04-02T04:05:16.178Z,4.96
2023-04-02T04:06:16.360Z,4.94
2023-04-02T04:07:16.469Z,4.92
2023-04-02T04:08:16.620Z,4.91
2023-04-02T04:09:16.658Z,4.89
2023-04-02T04:10:16.770Z,4.88
2023-04-02T04:11:17.081Z,4.87
2023-04-02T04:12:17.028Z,4.86
2023-04-02T04:13:17.137Z,4.85
2023-04-02T04:14:17.240Z,4.84
2023-04-02T04:15:17.390Z,4.83
2023-04-02T04:16:17.512Z,4.81
2023-04-02T04:17:17.576Z,4.79
2023-04-02T04:18:17.739Z,4.77
2023-04-02T04:19:17.839Z,4.75
2023-04-02T04:20:17.980Z,4.75
2023-04-02T04:21:18.045Z,4.77
2023-04-02T04:22:18.222Z,4.78
2023-04-02T04:23:18.258Z,4.78
2023-04-02T04:24:18.326Z,4.75
2023-04-02T04:25:18.444Z,4.73
2023-04-02T04:26:18.587Z,4.70
2023-04-02T04:27:18.684Z,4.68
2023-04-02T04:28:18.830Z,4.66
2023-04-02T04:29:18.938Z,4.65
2023-04-02T04:30:19.012Z,4.65
2023-04-02T04:31:19.171Z,4.65
2023-04-02T04:32:19.322Z,4.64
2023-04-02T04:33:19.371Z,4.64
2023-04-02T04:34:19.510Z,4.64
2023-04-02T04:35:19.640Z,4.63
2023-04-02T04:36:19.812Z,4.62
2023-04-02T04:37:19.839Z,4.62
2023-04-02T04:38:19.960Z,4.63
2023-04-02T04:39:20.060Z,4.64
2023-04-02T04:40:20.203Z,4.65
2023-04-02T04:41:20.250Z,4.66
2023-04-02T04:42:20.435Z,4.68
2023-04-02T04:43:20.568Z,4.70
2023-04-02T04:44:20.585Z,4.69
2023-04-02T04:45:20.695Z,4.66
2023-04-02T04:46:20.884Z,4.66
2023-04-02T04:47:20.957Z,4.67
2023-04-02T04:48:21.061Z,4.67
2023-04-02T04:49:21.159Z,4.67
2023-04-02T04:50:21.294Z,4.68
2023-04-02T04:51:21.402Z,4.68
2023-04-02T04:52:21.507Z,4.69
2023-04-02T04:53:21.622Z,4.69
2023-04-02T04:54:21.745Z,4.69
2023-04-02T04:55:21.819Z,4.68
2023-04-02T04:56:22.044Z,4.67
2023-04-02T04:57:22.164Z,4.66
2023-04-02T04:58:22.191Z,4.65
2023-04-02T04:59:22.439Z,4.64
2023-04-02T05:00:22.377Z,4.63
2023-04-02T05:01:22.498Z,4.62
2023-04-02T05:02:22.768Z,4.60
2023-04-02T05:03:22.714Z,4.58
2023-04-02T05:04:22.940Z,4.56
2023-04-02T05:05:22.924Z,4.55
2023-04-02T05:06:23.074Z,4.54
2023-04-02T05:07:23.169Z,4.53
2023-04-02T05:08:23.271Z,4.53
2023-04-02T05:09:23.442Z,4.54
2023-04-02T05:10:23.480Z,4.54
2023-04-02T05:11:23.692Z,4.52
2023-04-02T05:12:23.741Z,4.51
2023-04-02T05:13:23.853Z,4.51
2023-04-02T05:14:24.011Z,4.52
2023-04-02T05:15:24.048Z,4.52
2023-04-02T05:16:24.238Z,4.52
2023-04-02T05:17:24.292Z,4.52
2023-04-02T05:18:24.407Z,4.53
2023-04-02T05:19:24.582Z,4.54
2023-04-02T05:20:24.606Z,4.54
2023-04-02T05:21:24.761Z,4.53
2023-04-02T05:22:24.911Z,4.50
2023-04-02T05:23:24.995Z,4.47
2023-04-02T05:24:25.099Z,4.45
2023-04-02T05:25:25.388Z,4.44
2023-04-02T05:26:25.455Z,4.42
2023-04-02T05:27:25.443Z,4.41
2023-04-02T05:28:25.550Z,4.40
2023-04-02T05:29:25.651Z,4.39
2023-04-02T05:30:25.796Z,4.37
2023-04-02T05:31:26.001Z,4.34
2023-04-02T05:32:25.999Z,4.31
2023-04-02T05:33:26.152Z,4.30
2023-04-02T05:34:26.181Z,4.29
2023-04-02T05:35:26.311Z,4.28
2023-04-02T05:36:26.534Z,4.27
2023-04-02T05:37:26.789Z,4.26
2023-04-02T05:38:26.650Z,4.25
2023-04-02T05:39:26.794Z,4.24
2023-04-02T05:40:26.887Z,4.24
2023-04-02T05:41:27.067Z,4.24
2023-04-02T05:42:27.177Z,4.24
2023-04-02T05:43:27.506Z,4.25
2023-04-02T05:44:27.361Z,4.24
2023-04-02T05:45:27.459Z,4.23
2023-04-02T05:46:27.643Z,4.22
2023-04-02T05:47:27.748Z,4.20
2023-04-02T05:48:27.801Z,4.19
2023-04-02T05:49:27.920Z,4.19
2023-04-02T05:50:28.084Z,4.18
2023-04-02T05:51:28.190Z,4.17
2023-04-02T05:52:28.269Z,4.15
2023-04-02T05:53:28.385Z,4.14
2023-04-02T05:54:28.519Z,4.13
2023-04-02T05:55:28.579Z,4.13
2023-04-02T05:56:28.694Z,4.12
2023-04-02T05:57:42.826Z,4.11
2023-04-02T05:58:36.089Z,4.09
2023-04-02T05:59:30.112Z,4.06
2023-04-02T06:00:29.175Z,4.05
2023-04-02T06:01:29.368Z,4.04
2023-04-02T06:02:29.618Z,4.04
2023-04-02T06:03:29.578Z,4.04
2023-04-02T06:04:29.653Z,4.05
2023-04-02T06:05:29.763Z,4.05
2023-04-02T06:06:29.852Z,4.04
2023-04-02T06:07:29.988Z,4.04
2023-04-02T06:08:30.176Z,4.05
2023-04-02T06:09:30.241Z,4.03
2023-04-02T06:10:30.393Z,4.00
2023-04-02T06:11:30.531Z,3.97
2023-04-02T06:12:30.675Z,3.96
2023-04-02T06:13:30.716Z,3.95
2023-04-02T06:14:30.837Z,3.95
2023-04-02T06:15:31.022Z,3.94
2023-04-02T06:16:31.141Z,3.94
2023-04-02T06:17:31.232Z,3.94
2023-04-02T06:18:31.360Z,3.95
2023-04-02T06:19:31.524Z,3.96
2023-04-02T06:20:31.581Z,3.97
2023-04-02T06:21:31.790Z,3.97
2023-04-02T06:22:32.093Z,3.97
2023-04-02T06:23:31.966Z,3.97
2023-04-02T06:24:32.011Z,3.97
2023-04-02T06:25:32.170Z,3.98
2023-04-02T06:26:32.275Z,4.00
2023-04-02T06:27:32.491Z,4.01
2023-04-02T06:28:32.581Z,4.02
2023-04-02T06:29:32.738Z,4.03
2023-04-02T06:30:32.934Z,4.03
2023-04-02T06:31:32.988Z,4.02
2023-04-02T06:32:33.171Z,4.00
2023-04-02T06:33:33.625Z,3.99
2023-04-02T06:34:33.430Z,3.98
2023-04-02T06:35:33.845Z,3.98
2023-04-02T06:36:33.683Z,3.98
2023-04-02T06:37:33.796Z,3.97
2023-04-02T06:38:33.932Z,3.97
2023-04-02T06:39:34.051Z,3.96
2023-04-02T06:40:34.160Z,3.97
2023-04-02T06:41:34.544Z,3.97
2023-04-02T06:42:34.463Z,3.98
2023-04-02T06:43:34.558Z,3.97
2023-04-02T06:44:34.717Z,3.98
2023-04-02T06:45:35.324Z,4.00
2023-04-02T06:46:35.038Z,4.01
2023-04-02T06:47:35.128Z,4.00
2023-04-02T06:48:35.208Z,3.97
2023-04-02T06:49:35.294Z,3.97
2023-04-02T06:50:35.432Z,3.96
2023-04-02T06:51:35.594Z,3.96
2023-04-02T06:52:35.635Z,3.95
2023-04-02T06:53:35.787Z,3.95
2023-04-02T06:54:35.920Z,3.95
2023-04-02T06:55:36.276Z,3.94
2023-04-02T06:56:36.211Z,3.93
2023-04-02T06:57:36.409Z,3.91
2023-04-02T06:58:36.459Z,3.89
2023-04-02T06:59:36.627Z,3.88
2023-04-02T07:00:36.738Z,3.87
2023-04-02T07:01:36.995Z,3.86
2023-04-02T07:02:37.156Z,3.85
2023-04-02T07:03:37.176Z,3.86
2023-04-02T07:04:37.315Z,3.85
2023-04-02T07:05:37.558Z,3.84
2023-04-02T07:06:37.474Z,3.82
2023-04-02T07:07:37.582Z,3.79
2023-04-02T07:08:37.733Z,3.75
2023-04-02T07:09:37.822Z,3.72
2023-04-02T07:10:37.934Z,3.71
2023-04-02T07:11:38.102Z,3.69
2023-04-02T07:12:38.258Z,3.67
2023-04-02T07:13:38.402Z,3.67
2023-04-02T07:14:38.487Z,3.66
2023-04-02T07:15:38.778Z,3.67
2023-04-02T07:16:38.745Z,3.68
2023-04-02T07:17:38.943Z,3.69
2023-04-02T07:18:39.065Z,3.71
2023-04-02T07:19:39.217Z,3.72
2023-04-02T07:20:39.360Z,3.73
2023-04-02T07:21:39.485Z,3.73
2023-04-02T07:22:39.544Z,3.69
2023-04-02T07:23:39.786Z,3.66
2023-04-02T07:24:39.808Z,3.66
2023-04-02T07:25:39.924Z,3.67
2023-04-02T07:26:40.082Z,3.68
2023-04-02T07:27:40.220Z,3.69
2023-04-02T07:28:40.497Z,3.69
2023-04-02T07:29:40.433Z,3.70
2023-04-02T07:30:40.734Z,3.71
2023-04-02T07:31:40.766Z,3.70
2023-04-02T07:32:40.854Z,3.68
2023-04-02T07:33:42.230Z,3.65
2023-04-02T07:34:41.124Z,3.64
2023-04-02T07:35:41.293Z,3.64
2023-04-02T07:36:41.440Z,3.64
2023-04-02T07:37:41.537Z,3.64
2023-04-02T07:38:41.709Z,3.65
2023-04-02T07:39:41.869Z,3.66
2023-04-02T07:40:42.034Z,3.68
2023-04-02T07:41:42.085Z,3.70
2023-04-02T07:42:42.175Z,3.70
2023-04-02T07:43:42.321Z,3.68
2023-04-02T07:44:42.472Z,3.65
2023-04-02T07:45:42.629Z,3.64
2023-04-02T07:46:42.801Z,3.62
2023-04-02T07:47:42.926Z,3.63
2023-04-02T07:48:42.989Z,3.65
2023-04-02T07:49:43.115Z,3.66
2023-04-02T07:50:43.317Z,3.68
2023-04-02T07:51:43.380Z,3.69
2023-04-02T07:52:43.509Z,3.68
2023-04-02T07:53:43.624Z,3.67
2023-04-02T07:54:43.776Z,3.65
2023-04-02T07:55:43.872Z,3.63
2023-04-02T07:56:44.036Z,3.61
2023-04-02T07:57:46.388Z,3.58
2023-04-02T07:58:44.236Z,3.56
2023-04-02T07:59:44.417Z,3.54
2023-04-02T08:00:44.534Z,3.53
2023-04-02T08:01:44.756Z,3.53
2023-04-02T08:02:44.779Z,3.54
2023-04-02T08:03:44.980Z,3.56
2023-04-02T08:04:45.164Z,3.57
2023-04-02T08:05:45.163Z,3.57
2023-04-02T08:06:45.359Z,3.55
2023-04-02T08:07:45.492Z,3.53
2023-04-02T08:08:45.590Z,3.52
2023-04-02T08:09:45.779Z,3.53
2023-04-02T08:10:45.793Z,3.56
2023-04-02T08:11:46.017Z,3.60
2023-04-02T08:12:46.144Z,3.63
2023-04-02T08:13:46.179Z,3.67
2023-04-02T08:14:46.327Z,3.70
2023-04-02T08:15:46.506Z,3.72
2023-04-02T08:16:46.754Z,3.71
2023-04-02T08:17:46.824Z,3.69
2023-04-02T08:18:46.909Z,3.69
2023-04-02T08:19:54.687Z,3.68
2023-04-02T08:20:48.340Z,3.66
2023-04-02T08:21:47.424Z,3.64
2023-04-02T08:22:47.465Z,3.63
2023-04-02T08:23:47.602Z,3.62
2023-04-02T08:24:47.640Z,3.61
2023-04-02T08:25:47.776Z,3.61
2023-04-02T08:26:47.965Z,3.61
2023-04-02T08:27:48.208Z,3.62
2023-04-02T08:28:48.195Z,3.60
2023-04-02T08:29:48.422Z,3.58
2023-04-02T08:30:48.638Z,3.57
2023-04-02T08:31:48.717Z,3.57
2023-04-02T08:32:48.928Z,3.57
2023-04-02T08:33:48.928Z,3.57
2023-04-02T08:34:49.084Z,3.57
2023-04-02T08:35:49.161Z,3.57
2023-04-02T08:36:49.233Z,3.56
2023-04-02T08:37:49.411Z,3.54
2023-04-02T08:38:49.478Z,3.53
2023-04-02T08:39:49.611Z,3.53
2023-04-02T08:40:49.902Z,3.52
2023-04-02T08:41:49.822Z,3.51
2023-04-02T08:42:50.114Z,3.51
2023-04-02T08:43:50.112Z,3.48
2023-04-02T08:44:50.222Z,3.44
2023-04-02T08:45:50.419Z,3.41
2023-04-02T08:46:50.584Z,3.39
2023-04-02T08:47:50.655Z,3.37
2023-04-02T08:48:50.795Z,3.35
2023-04-02T08:49:51.135Z,3.34
2023-04-02T08:50:50.980Z,3.33
2023-04-02T08:51:51.145Z,3.34
2023-04-02T08:52:51.226Z,3.35
2023-04-02T08:53:51.367Z,3.36
2023-04-02T08:54:51.530Z,3.36
2023-04-02T08:55:51.662Z,3.36
2023-04-02T08:56:51.974Z,3.36
2023-04-02T08:57:51.931Z,3.35
2023-04-02T08:58:52.180Z,3.35
2023-04-02T08:59:52.206Z,3.36
2023-04-02T09:00:52.388Z,3.37
2023-04-02T09:01:52.591Z,3.39
2023-04-02T09:02:52.641Z,3.40
2023-04-02T09:03:52.761Z,3.41
2023-04-02T09:04:53.011Z,3.42
2023-04-02T09:05:53.016Z,3.42
2023-04-02T09:06:53.120Z,3.42
2023-04-02T09:07:53.313Z,3.41
2023-04-02T09:08:53.410Z,3.40
2023-04-02T09:09:53.513Z,3.40
2023-04-02T09:10:53.662Z,3.39
2023-04-02T09:11:53.877Z,3.39
2023-04-02T09:12:53.992Z,3.40
2023-04-02T09:13:54.126Z,3.41
2023-04-02T09:14:54.250Z,3.43
2023-04-02T09:15:54.345Z,3.45
2023-04-02T09:16:54.487Z,3.48
2023-04-02T09:17:55.761Z,3.50
2023-04-02T09:18:54.799Z,3.49
2023-04-02T09:19:54.901Z,3.46
2023-04-02T09:20:55.029Z,3.43
2023-04-02T09:21:55.116Z,3.39
2023-04-02T09:22:55.255Z,3.36
2023-04-02T09:23:55.531Z,3.33
2023-04-02T09:24:55.673Z,3.30
2023-04-02T09:26:04.242Z,3.30
2023-04-02T09:26:56.833Z,3.29
2023-04-02T09:27:55.944Z,3.28
2023-04-02T09:28:56.117Z,3.26
2023-04-02T09:29:56.402Z,3.23
2023-04-02T09:30:56.340Z,3.23
2023-04-02T09:31:56.651Z,3.23
2023-04-02T09:32:56.612Z,3.22
2023-04-02T09:33:56.740Z,3.20
2023-04-02T09:34:57.061Z,3.20
2023-04-02T09:35:57.132Z,3.19
2023-04-02T09:36:57.188Z,3.18
2023-04-02T09:37:57.342Z,3.16
2023-04-02T09:38:57.413Z,3.16
2023-04-02T09:39:57.609Z,3.16
2023-04-02T09:40:57.695Z,3.17
2023-04-02T09:42:05.387Z,3.19
2023-04-02T09:42:59.056Z,3.20
2023-04-02T09:43:58.185Z,3.20
2023-04-02T09:44:58.250Z,3.21
2023-04-02T09:45:58.409Z,3.23
2023-04-02T09:46:58.571Z,3.26
2023-04-02T09:47:58.642Z,3.28
2023-04-02T09:48:58.758Z,3.29
2023-04-02T09:49:58.955Z,3.30
2023-04-02T09:50:59.024Z,3.31
2023-04-02T09:51:59.180Z,3.32
2023-04-02T09:52:59.242Z,3.34
2023-04-02T09:53:59.428Z,3.38
2023-04-02T09:54:59.577Z,3.40
2023-04-02T09:55:59.659Z,3.42
2023-04-02T09:56:59.840Z,3.45
2023-04-02T09:58:01.931Z,3.47
2023-04-02T09:59:00.110Z,3.49
2023-04-02T10:00:00.288Z,3.51
2023-04-02T10:01:00.388Z,3.53
2023-04-02T10:02:00.518Z,3.55
2023-04-02T10:03:00.670Z,3.57
2023-04-02T10:04:00.862Z,3.60
2023-04-02T10:05:00.871Z,3.60
2023-04-02T10:06:00.968Z,3.59
2023-04-02T10:07:01.085Z,3.58
2023-04-02T10:08:01.299Z,3.56
2023-04-02T10:09:01.324Z,3.55
2023-04-02T10:10:01.437Z,3.54
2023-04-02T10:11:01.554Z,3.53
2023-04-02T10:12:01.674Z,3.51
2023-04-02T10:13:01.880Z,3.50
2023-04-02T10:14:01.983Z,3.50
2023-04-02T10:15:02.125Z,3.51
2023-04-02T10:16:02.233Z,3.51
2023-04-02T10:17:02.371Z,3.51
2023-04-02T10:18:02.652Z,3.52
2023-04-02T10:19:02.658Z,3.54
2023-04-02T10:20:02.823Z,3.55
2023-04-02T10:21:02.871Z,3.56
2023-04-02T10:22:03.015Z,3.57
2023-04-02T10:23:04.901Z,3.59
2023-04-02T10:24:03.355Z,3.60
2023-04-02T10:25:03.475Z,3.61
2023-04-02T10:26:03.611Z,3.59
2023-04-02T10:27:03.853Z,3.57
2023-04-02T10:28:03.833Z,3.56
2023-04-02T10:29:06.752Z,3.57
2023-04-02T10:30:04.140Z,3.57
2023-04-02T10:31:04.355Z,3.57
2023-04-02T10:32:04.435Z,3.58
2023-04-02T10:33:04.525Z,3.59
2023-04-02T10:34:04.781Z,3.59
2023-04-02T10:35:04.819Z,3.58
2023-04-02T10:36:04.938Z,3.55
2023-04-02T10:37:05.104Z,3.55
2023-04-02T10:38:05.206Z,3.56
2023-04-02T10:39:05.291Z,3.57
2023-04-02T10:40:05.464Z,3.57
2023-04-02T10:41:05.608Z,3.59
2023-04-02T10:42:05.738Z,3.61
2023-04-02T10:43:05.818Z,3.63
2023-04-02T10:44:16.768Z,3.65
2023-04-02T10:45:07.062Z,3.64
2023-04-02T10:46:06.324Z,3.63
2023-04-02T10:47:06.327Z,3.64
2023-04-02T10:48:06.555Z,3.66
2023-04-02T10:49:06.682Z,3.70
2023-04-02T10:50:06.831Z,3.72
2023-04-02T10:51:06.889Z,3.74
2023-04-02T10:52:07.048Z,3.75
2023-04-02T10:53:07.159Z,3.75
2023-04-02T10:54:07.187Z,3.76
2023-04-02T10:55:07.303Z,3.77
2023-04-02T10:56:07.492Z,3.77
2023-04-02T10:57:07.664Z,3.78
2023-04-02T10:58:07.739Z,3.80
2023-04-02T10:59:07.863Z,3.82
2023-04-02T11:00:07.984Z,3.85
2023-04-02T11:01:08.260Z,3.88
2023-04-02T11:02:08.251Z,3.91
2023-04-02T11:03:08.421Z,3.92
2023-04-02T11:04:08.499Z,3.94
2023-04-02T11:05:08.601Z,3.97
2023-04-02T11:06:09.727Z,3.96
2023-04-02T11:07:14.331Z,3.95
2023-04-02T11:08:10.144Z,3.95
2023-04-02T11:09:09.131Z,3.95
2023-04-02T11:10:09.266Z,3.95
2023-04-02T11:11:09.464Z,3.95
2023-04-02T11:12:09.507Z,3.93
2023-04-02T11:13:09.690Z,3.92
2023-04-02T11:14:09.799Z,3.92
2023-04-02T11:15:09.895Z,3.92
2023-04-02T11:16:10.071Z,3.90
2023-04-02T11:17:10.143Z,3.91
2023-04-02T11:18:10.260Z,3.93
2023-04-02T11:19:10.467Z,3.97
2023-04-02T11:20:10.588Z,4.00
2023-04-02T11:21:10.666Z,4.02
2023-04-02T11:22:10.895Z,4.05
2023-04-02T11:23:10.958Z,4.08
2023-04-02T11:24:11.049Z,4.10
2023-04-02T11:25:11.155Z,4.10
2023-04-02T11:26:11.293Z,4.07
2023-04-02T11:27:11.477Z,4.04
2023-04-02T11:28:11.540Z,4.01
2023-04-02T11:29:11.669Z,4.01
2023-04-02T11:30:12.005Z,4.01
2023-04-02T11:31:12.015Z,4.03
2023-04-02T11:32:12.072Z,4.08
2023-04-02T11:33:12.195Z,4.13
2023-04-02T11:34:12.471Z,4.17
2023-04-02T11:35:12.500Z,4.24
2023-04-02T11:36:12.740Z,4.31
2023-04-02T11:37:12.737Z,4.35
2023-04-02T11:38:12.973Z,4.38
2023-04-02T11:39:17.550Z,4.37
2023-04-02T11:40:13.284Z,4.32
2023-04-02T11:41:13.325Z,4.29
2023-04-02T11:42:13.564Z,4.27
2023-04-02T11:43:13.564Z,4.26
2023-04-02T11:44:13.676Z,4.27
2023-04-02T11:45:13.779Z,4.31
2023-04-02T11:46:13.973Z,4.34
2023-04-02T11:47:14.149Z,4.36
2023-04-02T11:48:14.215Z,4.37
2023-04-02T11:49:14.321Z,4.36
2023-04-02T11:50:14.486Z,4.35
2023-04-02T11:51:14.928Z,4.35
2023-04-02T11:52:14.745Z,4.37
2023-04-02T11:53:14.839Z,4.39
2023-04-02T11:54:15.199Z,4.40
2023-04-02T11:55:15.856Z,4.41
2023-04-02T11:56:15.271Z,4.42
2023-04-02T11:57:15.369Z,4.42
2023-04-02T11:58:15.577Z,4.42
2023-04-02T11:59:15.619Z,4.42
2023-04-02T12:00:17.899Z,4.41
2023-04-02T12:01:15.896Z,4.38
2023-04-02T12:02:16.041Z,4.39
2023-04-02T12:03:16.247Z,4.43
2023-04-02T12:04:16.298Z,4.48
2023-04-02T12:05:16.648Z,4.51
2023-04-02T12:06:17.494Z,4.55
2023-04-02T12:07:16.697Z,4.57
2023-04-02T12:08:16.969Z,4.59
2023-04-02T12:09:16.986Z,4.63
2023-04-02T12:10:17.100Z,4.67
2023-04-02T12:11:17.275Z,4.67
2023-04-02T12:12:17.438Z,4.64
2023-04-02T12:13:17.535Z,4.61
2023-04-02T12:14:17.580Z,4.59
2023-04-02T12:15:17.742Z,4.59
2023-04-02T12:16:17.920Z,4.58
2023-04-02T12:17:18.099Z,4.59
2023-04-02T12:18:18.157Z,4.61
2023-04-02T12:19:18.299Z,4.64
2023-04-02T12:20:18.380Z,4.66
2023-04-02T12:21:18.554Z,4.66
2023-04-02T12:22:18.646Z,4.69
2023-04-02T12:23:18.797Z,4.73
2023-04-02T12:24:18.980Z,4.79
2023-04-02T12:25:19.034Z,4.82
2023-04-02T12:26:19.833Z,4.81
2023-04-02T12:27:19.310Z,4.80
2023-04-02T12:28:19.405Z,4.80
2023-04-02T12:29:19.518Z,4.83
2023-04-02T12:30:19.666Z,4.88
2023-04-02T12:31:19.837Z,4.89
2023-04-02T12:32:19.898Z,4.89
2023-04-02T12:33:20.077Z,4.90
2023-04-02T12:34:20.215Z,4.89
2023-04-02T12:35:20.306Z,4.90
2023-04-02T12:36:20.450Z,4.92
2023-04-02T12:37:20.588Z,4.95
2023-04-02T12:38:20.763Z,5.02
2023-04-02T12:39:20.813Z,5.09
2023-04-02T12:40:20.962Z,5.15
2023-04-02T12:41:21.076Z,5.21
2023-04-02T12:42:21.155Z,5.26
2023-04-02T12:43:21.290Z,5.30
2023-04-02T12:44:21.462Z,5.32
2023-04-02T12:45:21.563Z,5.31
2023-04-02T12:46:21.646Z,5.29
2023-04-02T12:47:21.825Z,5.28
2023-04-02T12:48:21.972Z,5.27
2023-04-02T12:49:22.022Z,5.26
2023-04-02T12:50:22.177Z,5.25
2023-04-02T12:51:22.343Z,5.23
2023-04-02T12:52:22.478Z,5.23
2023-04-02T12:53:22.549Z,5.24
2023-04-02T12:54:22.745Z,5.23
2023-04-02T12:55:22.828Z,5.19
2023-04-02T12:56:23.049Z,5.17
2023-04-02T12:57:23.209Z,5.16
2023-04-02T12:58:23.212Z,5.16
2023-04-02T12:59:23.349Z,5.15
2023-04-02T13:00:23.422Z,5.14
2023-04-02T13:01:23.704Z,5.12
2023-04-02T13:02:23.750Z,5.09
2023-04-02T13:03:23.920Z,5.06
2023-04-02T13:04:23.980Z,5.06
2023-04-02T13:05:24.087Z,5.08
2023-04-02T13:06:24.309Z,5.08
2023-04-02T13:07:24.335Z,5.09
2023-04-02T13:08:24.516Z,5.10
2023-04-02T13:09:25.895Z,5.11
2023-04-02T13:10:24.735Z,5.10
2023-04-02T13:11:24.920Z,5.09
2023-04-02T13:12:25.020Z,5.09
2023-04-02T13:13:25.149Z,5.10
2023-04-02T13:14:25.244Z,5.11
2023-04-02T13:15:26.641Z,5.10
2023-04-02T13:16:25.541Z,5.09
2023-04-02T13:17:25.683Z,5.06
2023-04-02T13:18:25.779Z,5.04
2023-04-02T13:19:25.906Z,5.05
2023-04-02T13:20:26.140Z,5.07